sensor_id;sensor_type;location;lat;lon;timestamp;P1;durP1;ratioP1;P2;durP2;ratioP2
59314;SDS011;46521;50.160;20.802;2023-06-05T00:09:10;8.37;;;3.03;;
59314;SDS011;46521;50.160;20.802;2023-06-05T00:19:13;8.58;;;2.80;;
59314;SDS011;46521;50.160;20.802;2023-06-05T00:29:15;7.78;;;2.80;;
59314;SDS011;46521;50.160;20.802;2023-06-05T00:39:16;6.80;;;2.70;;
59314;SDS011;46521;50.160;20.802;2023-06-05T00:49:21;8.70;;;3.55;;
59314;SDS011;46521;50.160;20.802;2023-06-05T00:59:23;7.90;;;2.90;;
59314;SDS011;46521;50.160;20.802;2023-06-05T01:09:24;6.80;;;2.80;;
59314;SDS011;46521;50.160;20.802;2023-06-05T01:19:26;7.87;;;2.97;;
59314;SDS011;46521;50.160;20.802;2023-06-05T01:29:35;10.00;;;3.20;;
59314;SDS011;46521;50.160;20.802;2023-06-05T01:39:40;7.90;;;3.03;;
59314;SDS011;46521;50.160;20.802;2023-06-05T01:49:44;7.70;;;2.90;;
59314;SDS011;46521;50.160;20.802;2023-06-05T01:59:46;9.05;;;3.45;;
59314;SDS011;46521;50.160;20.802;2023-06-05T02:09:50;8.15;;;3.23;;
59314;SDS011;46521;50.160;20.802;2023-06-05T02:19:52;7.20;;;3.17;;
59314;SDS011;46521;50.160;20.802;2023-06-05T02:29:53;8.20;;;3.55;;
59314;SDS011;46521;50.160;20.802;2023-06-05T02:39:55;8.70;;;3.50;;
59314;SDS011;46521;50.160;20.802;2023-06-05T02:49:57;8.33;;;3.50;;
59314;SDS011;46521;50.160;20.802;2023-06-05T02:59:59;9.45;;;3.95;;
59314;SDS011;46521;50.160;20.802;2023-06-05T03:10:02;9.85;;;4.00;;
59314;SDS011;46521;50.160;20.802;2023-06-05T03:20:04;8.48;;;3.50;;
59314;SDS011;46521;50.160;20.802;2023-06-05T03:30:10;11.85;;;4.00;;
59314;SDS011;46521;50.160;20.802;2023-06-05T03:40:12;7.60;;;4.00;;
59314;SDS011;46521;50.160;20.802;2023-06-05T03:50:14;7.70;;;3.80;;
59314;SDS011;46521;50.160;20.802;2023-06-05T04:00:17;9.10;;;4.13;;
59314;SDS011;46521;50.160;20.802;2023-06-05T04:10:18;8.20;;;3.90;;
59314;SDS011;46521;50.160;20.802;2023-06-05T04:20:20;7.75;;;3.75;;
59314;SDS011;46521;50.160;20.802;2023-06-05T04:30:22;8.83;;;4.00;;
59314;SDS011;46521;50.160;20.802;2023-06-05T04:40:24;8.25;;;4.45;;
59314;SDS011;46521;50.160;20.802;2023-06-05T04:50:26;8.13;;;3.90;;
59314;SDS011;46521;50.160;20.802;2023-06-05T05:00:29;8.67;;;4.20;;
59314;SDS011;46521;50.160;20.802;2023-06-05T05:10:31;9.53;;;3.90;;
59314;SDS011;46521;50.160;20.802;2023-06-05T05:20:33;8.10;;;4.03;;
59314;SDS011;46521;50.160;20.802;2023-06-05T05:30:35;10.10;;;4.20;;
59314;SDS011;46521;50.160;20.802;2023-06-05T05:40:36;8.10;;;4.60;;
59314;SDS011;46521;50.160;20.802;2023-06-05T05:50:39;9.60;;;4.40;;
59314;SDS011;46521;50.160;20.802;2023-06-05T06:00:41;9.10;;;4.30;;
59314;SDS011;46521;50.160;20.802;2023-06-05T06:10:43;9.40;;;4.30;;
59314;SDS011;46521;50.160;20.802;2023-06-05T06:20:44;7.53;;;4.45;;
59314;SDS011;46521;50.160;20.802;2023-06-05T06:30:46;9.05;;;4.70;;
59314;SDS011;46521;50.160;20.802;2023-06-05T06:40:48;7.43;;;3.80;;
59314;SDS011;46521;50.160;20.802;2023-06-05T06:50:50;11.87;;;4.97;;
59314;SDS011;46521;50.160;20.802;2023-06-05T07:00:52;12.00;;;4.67;;
59314;SDS011;46521;50.160;20.802;2023-06-05T07:10:54;9.30;;;3.90;;
59314;SDS011;46521;50.160;20.802;2023-06-05T07:20:56;11.37;;;3.93;;
59314;SDS011;46521;50.160;20.802;2023-06-05T07:30:58;7.83;;;4.17;;
59314;SDS011;46521;50.160;20.802;2023-06-05T07:41:05;10.37;;;4.03;;
59314;SDS011;46521;50.160;20.802;2023-06-05T07:51:07;7.90;;;4.00;;
59314;SDS011;46521;50.160;20.802;2023-06-05T08:01:09;10.60;;;4.10;;
59314;SDS011;46521;50.160;20.802;2023-06-05T08:11:16;8.70;;;3.65;;
59314;SDS011;46521;50.160;20.802;2023-06-05T08:21:18;8.25;;;3.55;;
59314;SDS011;46521;50.160;20.802;2023-06-05T08:31:19;7.85;;;3.30;;
59314;SDS011;46521;50.160;20.802;2023-06-05T08:41:21;7.00;;;2.65;;
59314;SDS011;46521;50.160;20.802;2023-06-05T08:51:24;6.37;;;2.70;;
59314;SDS011;46521;50.160;20.802;2023-06-05T09:01:27;7.05;;;2.85;;
59314;SDS011;46521;50.160;20.802;2023-06-05T09:11:31;7.03;;;3.20;;
59314;SDS011;46521;50.160;20.802;2023-06-05T09:21:33;6.20;;;2.65;;
59314;SDS011;46521;50.160;20.802;2023-06-05T09:31:40;8.57;;;2.60;;
59314;SDS011;46521;50.160;20.802;2023-06-05T09:41:46;6.73;;;2.40;;
59314;SDS011;46521;50.160;20.802;2023-06-05T09:51:49;6.08;;;2.25;;
59314;SDS011;46521;50.160;20.802;2023-06-05T10:01:51;6.80;;;2.50;;
59314;SDS011;46521;50.160;20.802;2023-06-05T10:11:53;7.05;;;2.30;;
59314;SDS011;46521;50.160;20.802;2023-06-05T10:21:56;6.15;;;2.30;;
59314;SDS011;46521;50.160;20.802;2023-06-05T10:32:01;6.83;;;2.73;;
59314;SDS011;46521;50.160;20.802;2023-06-05T10:42:09;6.68;;;2.43;;
59314;SDS011;46521;50.160;20.802;2023-06-05T10:52:34;6.55;;;2.60;;
59314;SDS011;46521;50.160;20.802;2023-06-05T11:02:45;5.73;;;2.80;;
59314;SDS011;46521;50.160;20.802;2023-06-05T11:32:54;6.10;;;2.80;;
59314;SDS011;46521;50.160;20.802;2023-06-05T11:43:03;7.50;;;3.13;;
59314;SDS011;46521;50.160;20.802;2023-06-05T11:53:10;6.78;;;2.68;;
59314;SDS011;46521;50.160;20.802;2023-06-05T12:03:20;7.05;;;2.85;;
59314;SDS011;46521;50.160;20.802;2023-06-05T12:13:22;6.00;;;2.58;;
59314;SDS011;46521;50.160;20.802;2023-06-05T12:23:24;8.33;;;3.30;;
59314;SDS011;46521;50.160;20.802;2023-06-05T12:33:26;6.80;;;2.85;;
59314;SDS011;46521;50.160;20.802;2023-06-05T12:43:27;6.23;;;2.77;;
59314;SDS011;46521;50.160;20.802;2023-06-05T12:53:29;7.85;;;3.05;;
59314;SDS011;46521;50.160;20.802;2023-06-05T13:03:31;8.83;;;2.90;;
59314;SDS011;46521;50.160;20.802;2023-06-05T13:23:36;8.47;;;3.00;;
59314;SDS011;46521;50.160;20.802;2023-06-05T13:33:38;6.90;;;3.00;;
59314;SDS011;46521;50.160;20.802;2023-06-05T13:43:40;5.35;;;2.55;;
59314;SDS011;46521;50.160;20.802;2023-06-05T13:53:41;7.50;;;2.85;;
59314;SDS011;46521;50.160;20.802;2023-06-05T14:03:43;7.37;;;2.90;;
59314;SDS011;46521;50.160;20.802;2023-06-05T14:13:44;9.90;;;3.00;;
59314;SDS011;46521;50.160;20.802;2023-06-05T14:23:46;7.77;;;2.80;;
59314;SDS011;46521;50.160;20.802;2023-06-05T14:33:47;6.08;;;2.58;;
59314;SDS011;46521;50.160;20.802;2023-06-05T14:43:49;6.33;;;2.93;;
59314;SDS011;46521;50.160;20.802;2023-06-05T14:53:50;6.73;;;3.07;;
59314;SDS011;46521;50.160;20.802;2023-06-05T15:03:52;7.20;;;2.85;;
59314;SDS011;46521;50.160;20.802;2023-06-05T15:13:53;6.73;;;3.00;;
59314;SDS011;46521;50.160;20.802;2023-06-05T15:23:55;5.75;;;2.50;;
59314;SDS011;46521;50.160;20.802;2023-06-05T15:33:56;7.55;;;2.90;;
59314;SDS011;46521;50.160;20.802;2023-06-05T15:43:58;6.07;;;2.80;;
59314;SDS011;46521;50.160;20.802;2023-06-05T15:53:59;8.60;;;3.20;;
59314;SDS011;46521;50.160;20.802;2023-06-05T16:04:01;7.30;;;3.00;;
59314;SDS011;46521;50.160;20.802;2023-06-05T16:14:02;5.53;;;2.40;;
59314;SDS011;46521;50.160;20.802;2023-06-05T16:24:04;6.57;;;2.90;;
59314;SDS011;46521;50.160;20.802;2023-06-05T16:34:10;6.20;;;3.10;;
59314;SDS011;46521;50.160;20.802;2023-06-05T16:44:13;11.13;;;6.00;;
59314;SDS011;46521;50.160;20.802;2023-06-05T16:54:15;6.70;;;3.08;;
59314;SDS011;46521;50.160;20.802;2023-06-05T17:04:16;7.50;;;3.20;;
59314;SDS011;46521;50.160;20.802;2023-06-05T17:14:18;6.05;;;2.80;;
59314;SDS011;46521;50.160;20.802;2023-06-05T17:24:20;7.43;;;3.00;;
59314;SDS011;46521;50.160;20.802;2023-06-05T17:34:23;7.00;;;3.00;;
59314;SDS011;46521;50.160;20.802;2023-06-05T17:44:25;7.70;;;3.10;;
59314;SDS011;46521;50.160;20.802;2023-06-05T17:54:26;9.13;;;4.55;;
59314;SDS011;46521;50.160;20.802;2023-06-05T18:04:28;8.00;;;2.90;;
59314;SDS011;46521;50.160;20.802;2023-06-05T18:14:29;5.57;;;2.63;;
59314;SDS011;46521;50.160;20.802;2023-06-05T18:24:31;6.40;;;2.60;;
59314;SDS011;46521;50.160;20.802;2023-06-05T18:34:34;6.00;;;2.60;;
59314;SDS011;46521;50.160;20.802;2023-06-05T18:44:37;6.50;;;2.80;;
59314;SDS011;46521;50.160;20.802;2023-06-05T18:54:39;8.70;;;2.90;;
59314;SDS011;46521;50.160;20.802;2023-06-05T19:04:42;7.70;;;2.80;;
59314;SDS011;46521;50.160;20.802;2023-06-05T19:14:43;7.80;;;2.70;;
59314;SDS011;46521;50.160;20.802;2023-06-05T19:24:45;6.53;;;2.90;;
59314;SDS011;46521;50.160;20.802;2023-06-05T19:34:47;8.75;;;3.58;;
59314;SDS011;46521;50.160;20.802;2023-06-05T19:44:49;8.20;;;3.38;;
59314;SDS011;46521;50.160;20.802;2023-06-05T19:54:51;6.90;;;3.08;;
59314;SDS011;46521;50.160;20.802;2023-06-05T20:04:53;8.08;;;3.05;;
59314;SDS011;46521;50.160;20.802;2023-06-05T20:14:55;8.20;;;3.60;;
59314;SDS011;46521;50.160;20.802;2023-06-05T20:24:56;7.33;;;3.23;;
59314;SDS011;46521;50.160;20.802;2023-06-05T20:34:58;8.78;;;3.05;;
59314;SDS011;46521;50.160;20.802;2023-06-05T20:45:00;8.17;;;3.50;;
59314;SDS011;46521;50.160;20.802;2023-06-05T20:55:02;8.35;;;3.55;;
59314;SDS011;46521;50.160;20.802;2023-06-05T21:05:03;7.10;;;2.90;;
59314;SDS011;46521;50.160;20.802;2023-06-05T21:15:06;7.33;;;2.93;;
59314;SDS011;46521;50.160;20.802;2023-06-05T21:25:08;6.53;;;2.68;;
59314;SDS011;46521;50.160;20.802;2023-06-05T21:35:10;6.63;;;2.90;;
59314;SDS011;46521;50.160;20.802;2023-06-05T21:45:14;7.45;;;2.40;;
59314;SDS011;46521;50.160;20.802;2023-06-05T21:55:15;8.00;;;3.20;;
59314;SDS011;46521;50.160;20.802;2023-06-05T22:05:17;7.80;;;3.03;;
59314;SDS011;46521;50.160;20.802;2023-06-05T22:15:18;8.13;;;3.13;;
59314;SDS011;46521;50.160;20.802;2023-06-05T22:25:20;7.80;;;2.90;;
59314;SDS011;46521;50.160;20.802;2023-06-05T22:35:22;8.30;;;3.10;;
59314;SDS011;46521;50.160;20.802;2023-06-05T22:45:23;7.27;;;2.80;;
59314;SDS011;46521;50.160;20.802;2023-06-05T22:55:25;8.13;;;3.00;;
59314;SDS011;46521;50.160;20.802;2023-06-05T23:05:26;7.20;;;2.80;;
59314;SDS011;46521;50.160;20.802;2023-06-05T23:15:28;6.00;;;2.65;;
59314;SDS011;46521;50.160;20.802;2023-06-05T23:25:29;7.80;;;3.00;;
59314;SDS011;46521;50.160;20.802;2023-06-05T23:35:31;10.30;;;3.55;;
59314;SDS011;46521;50.160;20.802;2023-06-05T23:45:32;6.30;;;3.00;;
